createdAt,value
2022-08-12T00:01:14.138Z,-36.00
2022-08-12T00:06:21.313Z,-36.00
2022-08-12T00:11:28.572Z,-36.00
2022-08-12T00:16:35.768Z,-36.00
2022-08-12T00:21:42.962Z,-36.00
2022-08-12T00:26:50.177Z,-36.00
2022-08-12T00:31:57.336Z,-36.00
2022-08-12T00:37:13.097Z,0.00
2022-08-12T00:42:11.851Z,-36.00
2022-08-12T00:47:24.669Z,-36.00
2022-08-12T00:52:26.144Z,-36.00
2022-08-12T00:57:33.388Z,-36.00
2022-08-12T01:02:40.916Z,-36.00
2022-08-12T01:07:47.785Z,-36.00
2022-08-12T01:12:55.021Z,-36.00
2022-08-12T01:18:02.298Z,-36.00
2022-08-12T01:23:09.483Z,-36.00
2022-08-12T01:28:16.677Z,-36.00
2022-08-12T01:33:23.938Z,-36.00
2022-08-12T01:38:31.134Z,-36.00
2022-08-12T01:43:38.308Z,0.00
2022-08-12T01:48:45.506Z,-36.00
2022-08-12T01:53:52.757Z,-36.00
2022-08-12T01:58:59.980Z,-36.00
2022-08-12T02:04:07.184Z,-36.00
2022-08-12T02:09:14.433Z,-36.00
2022-08-12T02:14:21.639Z,0.00
2022-08-12T02:19:28.897Z,-36.00
2022-08-12T02:24:36.125Z,-36.00
2022-08-12T02:29:43.403Z,-36.00
2022-08-12T02:34:50.605Z,0.00
2022-08-12T02:39:59.792Z,-36.00
2022-08-12T02:45:06.951Z,0.00
2022-08-12T02:50:14.113Z,-36.00
2022-08-12T02:55:28.741Z,-36.00
2022-08-12T03:00:28.558Z,-36.00
2022-08-12T03:05:44.231Z,-36.00
2022-08-12T03:10:42.989Z,-36.00
2022-08-12T03:15:50.185Z,-36.00
2022-08-12T03:20:57.339Z,-36.00
2022-08-12T03:26:04.534Z,-36.00
2022-08-12T03:31:11.709Z,-36.00
2022-08-12T03:36:18.898Z,-36.00
2022-08-12T03:41:26.098Z,-36.00
2022-08-12T03:46:33.416Z,-36.00
2022-08-12T03:51:40.660Z,0.00
2022-08-12T03:56:47.877Z,36.00
2022-08-12T04:01:55.143Z,72.00
2022-08-12T04:07:02.400Z,180.00
2022-08-12T04:12:09.822Z,324.00
2022-08-12T04:17:17.002Z,540.00
2022-08-12T04:22:24.243Z,756.00
2022-08-12T04:27:32.210Z,1044.00
2022-08-12T04:32:44.136Z,1404.00
2022-08-12T04:37:59.813Z,1728.00
2022-08-12T04:42:53.323Z,2052.00
2022-08-12T04:48:00.515Z,2340.00
2022-08-12T04:53:08.588Z,2664.00
2022-08-12T04:58:15.040Z,2952.00
2022-08-12T05:03:22.066Z,3456.00
2022-08-12T05:08:29.319Z,3744.00
2022-08-12T05:13:36.523Z,4068.00
2022-08-12T05:18:45.764Z,4392.00
2022-08-12T05:23:51.003Z,4608.00
2022-08-12T05:28:58.219Z,4860.00
2022-08-12T05:34:05.475Z,5112.00
2022-08-12T05:39:12.808Z,5328.00
2022-08-12T05:44:19.933Z,5508.00
2022-08-12T05:49:27.135Z,5688.00
2022-08-12T05:54:54.720Z,5904.00
2022-08-12T05:59:41.593Z,6084.00
2022-08-12T06:04:48.785Z,6264.00
2022-08-12T06:09:55.960Z,6408.00
2022-08-12T06:15:03.178Z,6552.00
2022-08-12T06:20:27.147Z,6660.00
2022-08-12T06:25:19.199Z,6768.00
2022-08-12T06:30:36.887Z,6876.00
2022-08-12T06:35:49.254Z,6984.00
2022-08-12T06:40:39.294Z,7128.00
2022-08-12T06:45:47.107Z,7236.00
2022-08-12T06:50:53.718Z,7524.00
2022-08-12T06:56:00.959Z,7704.00
2022-08-12T07:01:08.397Z,7812.00
2022-08-12T07:06:15.527Z,7920.00
2022-08-12T07:11:22.766Z,7992.00
2022-08-12T07:16:29.993Z,8100.00
2022-08-12T07:21:59.824Z,7992.00
2022-08-12T07:26:44.541Z,8028.00
2022-08-12T07:31:51.808Z,8100.00
2022-08-12T07:36:59.056Z,8172.00
2022-08-12T07:42:06.312Z,8280.00
2022-08-12T07:47:13.588Z,8316.00
2022-08-12T07:52:20.783Z,8316.00
2022-08-12T07:57:27.974Z,8316.00
2022-08-12T08:02:35.215Z,8352.00
2022-08-12T08:07:42.428Z,8676.00
2022-08-12T08:12:49.604Z,8928.00
2022-08-12T08:17:56.789Z,8928.00
2022-08-12T08:23:04.006Z,9036.00
2022-08-12T08:28:11.213Z,9036.00
2022-08-12T08:33:23.759Z,9036.00
2022-08-12T08:38:32.177Z,9108.00
2022-08-12T08:43:44.186Z,9144.00
2022-08-12T08:48:40.110Z,9216.00
2022-08-12T08:53:48.322Z,9180.00
2022-08-12T08:58:54.437Z,9216.00
2022-08-12T09:05:09.417Z,9216.00
2022-08-12T09:09:13.376Z,9252.00
2022-08-12T09:14:19.117Z,9216.00
2022-08-12T09:24:30.526Z,9828.00
2022-08-12T09:30:11.490Z,9756.00
2022-08-12T09:34:50.720Z,9756.00
2022-08-12T09:40:05.533Z,9756.00
2022-08-12T09:45:18.473Z,9684.00
2022-08-12T09:50:06.535Z,9648.00
2022-08-12T09:56:06.219Z,9756.00
2022-08-12T10:00:28.390Z,9504.00
2022-08-12T10:06:26.176Z,9504.00
2022-08-12T10:10:40.342Z,9648.00
2022-08-12T10:16:00.796Z,9432.00
2022-08-12T10:20:49.809Z,9216.00
2022-08-12T10:26:34.882Z,9036.00
2022-08-12T10:31:04.990Z,9036.00
2022-08-12T10:36:11.500Z,8964.00
2022-08-12T10:41:21.111Z,9000.00
2022-08-12T10:46:31.348Z,9072.00
2022-08-12T10:52:02.931Z,9036.00
2022-08-12T10:56:41.146Z,9000.00
2022-08-12T11:04:17.430Z,8964.00
2022-08-12T11:07:06.106Z,9000.00
2022-08-12T11:12:34.643Z,9180.00
2022-08-12T11:17:34.857Z,9180.00
2022-08-12T11:22:18.157Z,9144.00
2022-08-12T11:27:24.429Z,9108.00
2022-08-12T11:32:31.596Z,8064.00
2022-08-12T11:37:59.122Z,8028.00
2022-08-12T11:42:47.225Z,8028.00
2022-08-12T11:47:55.637Z,7992.00
2022-08-12T11:53:01.489Z,7956.00
2022-08-12T12:00:20.555Z,7920.00
2022-08-12T12:03:17.361Z,7848.00
2022-08-12T12:08:37.945Z,7812.00
2022-08-12T12:14:08.553Z,7776.00
2022-08-12T12:18:37.496Z,7776.00
2022-08-12T12:23:44.737Z,7740.00
2022-08-12T12:28:54.218Z,7740.00
2022-08-12T12:33:59.195Z,7596.00
2022-08-12T12:39:06.625Z,7560.00
2022-08-12T12:44:13.614Z,7524.00
2022-08-12T12:49:20.815Z,7452.00
2022-08-12T12:54:28.997Z,7416.00
2022-08-12T12:59:56.997Z,7344.00
2022-08-12T13:04:42.525Z,7344.00
2022-08-12T13:09:50.615Z,7848.00
2022-08-12T13:14:57.787Z,7812.00
2022-08-12T13:20:05.082Z,7704.00
2022-08-12T13:25:12.283Z,7632.00
2022-08-12T13:30:19.535Z,7668.00
2022-08-12T13:35:33.584Z,7704.00
2022-08-12T13:40:33.985Z,7308.00
2022-08-12T13:45:41.185Z,7380.00
2022-08-12T13:50:48.416Z,7596.00
2022-08-12T13:56:01.616Z,7560.00
2022-08-12T14:01:02.911Z,7740.00
2022-08-12T14:06:10.204Z,8100.00
2022-08-12T14:11:17.447Z,8928.00
2022-08-12T14:16:46.882Z,9504.00
2022-08-12T14:21:31.862Z,9576.00
2022-08-12T14:26:39.160Z,8784.00
2022-08-12T14:31:46.195Z,10152.00
2022-08-12T14:36:53.438Z,10548.00
2022-08-12T14:42:00.603Z,10152.00
2022-08-12T14:47:08.667Z,10224.00
2022-08-12T14:52:55.558Z,9504.00
2022-08-12T14:57:23.901Z,9864.00
2022-08-12T15:02:29.436Z,9828.00
2022-08-12T15:07:52.260Z,6480.00
2022-08-12T15:12:43.882Z,7956.00
2022-08-12T15:17:51.354Z,6552.00
2022-08-12T15:22:58.389Z,7740.00
2022-08-12T15:28:06.169Z,10188.00
2022-08-12T15:33:18.756Z,10188.00
2022-08-12T15:38:20.184Z,10440.00
2022-08-12T15:43:51.199Z,10980.00
2022-08-12T15:48:34.392Z,11088.00
2022-08-12T15:53:41.594Z,11268.00
2022-08-12T15:58:48.757Z,10980.00
2022-08-12T16:03:59.971Z,3024.00
2022-08-12T16:09:03.232Z,3024.00
2022-08-12T16:14:10.555Z,3024.00
2022-08-12T16:19:19.072Z,3096.00
2022-08-12T16:24:24.824Z,3060.00
2022-08-12T16:29:52.474Z,3132.00
2022-08-12T16:34:54.476Z,3060.00
2022-08-12T16:40:00.359Z,3096.00
2022-08-12T16:44:53.748Z,3060.00
2022-08-12T16:50:00.934Z,3132.00
2022-08-12T16:55:08.128Z,2952.00
2022-08-12T17:00:15.370Z,2808.00
2022-08-12T17:05:22.646Z,2772.00
2022-08-12T17:10:35.842Z,2628.00
2022-08-12T17:15:56.769Z,2628.00
2022-08-12T17:20:44.483Z,2592.00
2022-08-12T17:25:51.558Z,2556.00
2022-08-12T17:31:00.240Z,2376.00
2022-08-12T17:36:06.008Z,2196.00
2022-08-12T17:41:23.299Z,2016.00
2022-08-12T17:46:24.045Z,1872.00
2022-08-12T17:51:31.649Z,1764.00
2022-08-12T17:56:34.888Z,1584.00
2022-08-12T18:01:42.179Z,1368.00
2022-08-12T18:06:50.653Z,1080.00
2022-08-12T18:12:04.643Z,288.00
2022-08-12T18:17:04.038Z,216.00
2022-08-12T18:22:11.287Z,180.00
2022-08-12T18:27:29.760Z,144.00
2022-08-12T18:32:44.043Z,72.00
2022-08-12T18:37:42.122Z,36.00
2022-08-12T18:42:40.374Z,36.00
2022-08-12T18:47:51.855Z,0.00
2022-08-12T18:52:54.891Z,0.00
2022-08-12T18:58:06.741Z,0.00
2022-08-12T19:03:38.654Z,0.00
2022-08-12T19:08:16.553Z,0.00
2022-08-12T19:13:25.151Z,0.00
2022-08-12T19:18:32.960Z,0.00
2022-08-12T19:23:38.924Z,0.00
2022-08-12T19:28:46.286Z,540.00
2022-08-12T19:34:25.516Z,972.00
2022-08-12T19:39:01.055Z,0.00
2022-08-12T19:44:18.426Z,0.00
2022-08-12T19:49:16.044Z,0.00
2022-08-12T19:54:23.593Z,0.00
2022-08-12T19:59:42.990Z,0.00
2022-08-12T20:04:38.323Z,0.00
2022-08-12T20:09:45.582Z,0.00
2022-08-12T20:14:52.850Z,0.00
2022-08-12T20:20:16.885Z,0.00
2022-08-12T20:25:07.484Z,0.00
2022-08-12T20:30:14.623Z,0.00
2022-08-12T20:35:24.664Z,0.00
2022-08-12T20:40:29.183Z,9720.00
2022-08-12T20:45:44.984Z,9936.00
2022-08-12T20:50:47.640Z,9468.00
2022-08-12T20:55:56.783Z,9540.00
2022-08-12T21:00:57.857Z,9792.00
2022-08-12T21:06:11.780Z,9720.00
2022-08-12T21:11:12.247Z,9684.00
2022-08-12T21:16:35.943Z,9792.00
2022-08-12T21:21:46.881Z,9864.00
2022-08-12T21:26:33.818Z,10008.00
2022-08-12T21:32:39.613Z,9972.00
2022-08-12T21:36:49.498Z,9936.00
2022-08-12T21:41:55.390Z,9900.00
2022-08-12T21:47:02.628Z,9900.00
2022-08-12T21:52:09.859Z,9972.00
2022-08-12T21:57:17.127Z,9612.00
2022-08-12T22:02:24.409Z,9540.00
2022-08-12T22:07:31.588Z,9612.00
2022-08-12T22:12:38.783Z,10116.00
2022-08-12T22:17:50.504Z,9864.00
2022-08-12T22:22:55.898Z,10008.00
2022-08-12T22:28:00.477Z,9972.00
2022-08-12T22:33:07.989Z,9684.00
2022-08-12T22:38:17.265Z,9792.00
2022-08-12T22:43:22.078Z,9972.00
2022-08-12T22:48:30.727Z,10008.00
2022-08-12T22:53:36.755Z,9720.00
2022-08-12T22:58:43.686Z,9612.00
2022-08-12T23:03:53.989Z,9576.00
2022-08-12T23:08:58.097Z,9468.00
2022-08-12T23:14:05.326Z,9576.00
2022-08-12T23:19:17.921Z,9540.00
2022-08-12T23:24:19.725Z,9720.00
2022-08-12T23:29:43.452Z,9684.00
2022-08-12T23:34:34.112Z,9612.00
2022-08-12T23:40:13.261Z,9684.00
2022-08-12T23:44:52.326Z,9792.00
2022-08-12T23:49:59.764Z,9828.00
2022-08-12T23:55:23.227Z,-36.00
